sensor_id;sensor_type;location;lat;lon;timestamp;temperature;humidity
74822;DHT22;63353;48.702;8.884;2024-01-15T00:02:12;-3.00;99.90
74822;DHT22;63353;48.702;8.884;2024-01-15T00:04:38;-2.90;99.90
74822;DHT22;63353;48.702;8.884;2024-01-15T00:07:05;-2.90;99.90
74822;DHT22;63353;48.702;8.884;2024-01-15T00:09:32;-2.90;99.90
74822;DHT22;63353;48.702;8.884;2024-01-15T00:11:59;-2.90;99.90
74822;DHT22;63353;48.702;8.884;2024-01-15T00:14:25;-2.90;99.90
74822;DHT22;63353;48.702;8.884;2024-01-15T00:16:51;-2.90;99.90
74822;DHT22;63353;48.702;8.884;2024-01-15T00:19:20;-2.90;99.90
74822;DHT22;63353;48.702;8.884;2024-01-15T00:21:46;-2.90;99.90
74822;DHT22;63353;48.702;8.884;2024-01-15T00:24:11;-2.90;99.90
74822;DHT22;63353;48.702;8.884;2024-01-15T00:26:39;-2.80;99.90
74822;DHT22;63353;48.702;8.884;2024-01-15T00:29:07;-2.90;99.90
74822;DHT22;63353;48.702;8.884;2024-01-15T00:31:32;-2.90;99.90
74822;DHT22;63353;48.702;8.884;2024-01-15T00:33:58;-2.90;99.90
74822;DHT22;63353;48.702;8.884;2024-01-15T00:36:25;-2.90;99.90
74822;DHT22;63353;48.702;8.884;2024-01-15T00:38:51;-3.00;99.90
74822;DHT22;63353;48.702;8.884;2024-01-15T00:41:17;-3.00;99.90
74822;DHT22;63353;48.702;8.884;2024-01-15T00:43:46;-3.00;99.90
74822;DHT22;63353;48.702;8.884;2024-01-15T00:46:14;-3.00;99.90
74822;DHT22;63353;48.702;8.884;2024-01-15T00:48:40;-3.00;99.90
74822;DHT22;63353;48.702;8.884;2024-01-15T00:51:05;-2.90;99.90
74822;DHT22;63353;48.702;8.884;2024-01-15T00:53:31;-2.80;99.90
74822;DHT22;63353;48.702;8.884;2024-01-15T00:55:57;-2.80;99.90
74822;DHT22;63353;48.702;8.884;2024-01-15T00:58:23;-2.80;99.90
74822;DHT22;63353;48.702;8.884;2024-01-15T01:00:48;-2.80;99.90
74822;DHT22;63353;48.702;8.884;2024-01-15T01:03:14;-2.80;99.90
74822;DHT22;63353;48.702;8.884;2024-01-15T01:05:40;-2.70;99.90
74822;DHT22;63353;48.702;8.884;2024-01-15T01:08:05;-2.70;99.90
74822;DHT22;63353;48.702;8.884;2024-01-15T01:10:31;-2.70;99.90
74822;DHT22;63353;48.702;8.884;2024-01-15T01:12:57;-2.60;99.90
74822;DHT22;63353;48.702;8.884;2024-01-15T01:15:22;-2.60;99.90
74822;DHT22;63353;48.702;8.884;2024-01-15T01:17:48;-2.60;99.90
74822;DHT22;63353;48.702;8.884;2024-01-15T01:20:13;-2.60;99.90
74822;DHT22;63353;48.702;8.884;2024-01-15T01:22:41;-2.60;99.90
74822;DHT22;63353;48.702;8.884;2024-01-15T01:25:07;-2.60;99.90
74822;DHT22;63353;48.702;8.884;2024-01-15T01:27:34;-2.60;99.90
74822;DHT22;63353;48.702;8.884;2024-01-15T01:30:00;-2.60;99.90
74822;DHT22;63353;48.702;8.884;2024-01-15T01:32:27;-2.60;99.90
74822;DHT22;63353;48.702;8.884;2024-01-15T01:34:53;-2.70;99.90
74822;DHT22;63353;48.702;8.884;2024-01-15T01:37:18;-2.60;99.90
74822;DHT22;63353;48.702;8.884;2024-01-15T01:39:44;-2.70;99.90
74822;DHT22;63353;48.702;8.884;2024-01-15T01:42:11;-2.70;99.90
74822;DHT22;63353;48.702;8.884;2024-01-15T01:44:37;-2.70;99.90
74822;DHT22;63353;48.702;8.884;2024-01-15T01:47:04;-2.80;99.90
74822;DHT22;63353;48.702;8.884;2024-01-15T01:49:30;-2.80;99.90
74822;DHT22;63353;48.702;8.884;2024-01-15T01:51:57;-2.80;99.90
74822;DHT22;63353;48.702;8.884;2024-01-15T01:54:31;-2.80;99.90
74822;DHT22;63353;48.702;8.884;2024-01-15T01:56:57;-2.80;99.90
74822;DHT22;63353;48.702;8.884;2024-01-15T01:59:26;-2.90;99.90
74822;DHT22;63353;48.702;8.884;2024-01-15T02:01:54;-2.90;99.90
74822;DHT22;63353;48.702;8.884;2024-01-15T02:04:20;-2.80;99.90
74822;DHT22;63353;48.702;8.884;2024-01-15T02:06:47;-2.80;99.90
74822;DHT22;63353;48.702;8.884;2024-01-15T02:09:13;-2.80;99.90
74822;DHT22;63353;48.702;8.884;2024-01-15T02:11:42;-2.90;99.90
74822;DHT22;63353;48.702;8.884;2024-01-15T02:14:10;-2.90;99.90
74822;DHT22;63353;48.702;8.884;2024-01-15T02:16:36;-2.90;99.90
74822;DHT22;63353;48.702;8.884;2024-01-15T02:19:01;-2.90;99.90
74822;DHT22;63353;48.702;8.884;2024-01-15T02:21:27;-2.90;99.90
74822;DHT22;63353;48.702;8.884;2024-01-15T02:23:56;-2.90;99.90
74822;DHT22;63353;48.702;8.884;2024-01-15T02:26:22;-2.70;99.90
74822;DHT22;63353;48.702;8.884;2024-01-15T02:28:48;-2.70;99.90
74822;DHT22;63353;48.702;8.884;2024-01-15T02:31:14;-2.60;99.90
74822;DHT22;63353;48.702;8.884;2024-01-15T02:33:40;-2.60;99.90
74822;DHT22;63353;48.702;8.884;2024-01-15T02:36:07;-2.60;99.90
74822;DHT22;63353;48.702;8.884;2024-01-15T02:38:34;-2.60;99.90
74822;DHT22;63353;48.702;8.884;2024-01-15T02:40:59;-2.50;99.90
74822;DHT22;63353;48.702;8.884;2024-01-15T02:43:26;-2.50;99.90
74822;DHT22;63353;48.702;8.884;2024-01-15T02:45:52;-2.50;99.90
74822;DHT22;63353;48.702;8.884;2024-01-15T02:48:17;-2.40;99.90
74822;DHT22;63353;48.702;8.884;2024-01-15T02:50:43;-2.40;99.90
74822;DHT22;63353;48.702;8.884;2024-01-15T02:53:09;-2.40;99.90
74822;DHT22;63353;48.702;8.884;2024-01-15T02:55:34;-2.40;99.90
74822;DHT22;63353;48.702;8.884;2024-01-15T02:58:00;-2.40;99.90
74822;DHT22;63353;48.702;8.884;2024-01-15T03:00:26;-2.40;99.90
74822;DHT22;63353;48.702;8.884;2024-01-15T03:02:51;-2.40;99.90
74822;DHT22;63353;48.702;8.884;2024-01-15T03:05:18;-2.40;99.90
74822;DHT22;63353;48.702;8.884;2024-01-15T03:07:45;-2.40;99.90
74822;DHT22;63353;48.702;8.884;2024-01-15T03:10:11;-2.30;99.90
74822;DHT22;63353;48.702;8.884;2024-01-15T03:12:38;-2.40;99.90
74822;DHT22;63353;48.702;8.884;2024-01-15T03:15:04;-2.30;99.90
74822;DHT22;63353;48.702;8.884;2024-01-15T03:17:29;-2.30;99.90
74822;DHT22;63353;48.702;8.884;2024-01-15T03:19:55;-2.30;99.90
74822;DHT22;63353;48.702;8.884;2024-01-15T03:22:21;-2.30;99.90
74822;DHT22;63353;48.702;8.884;2024-01-15T03:24:46;-2.30;99.90
74822;DHT22;63353;48.702;8.884;2024-01-15T03:27:12;-2.20;99.90
74822;DHT22;63353;48.702;8.884;2024-01-15T03:29:37;-2.20;99.90
74822;DHT22;63353;48.702;8.884;2024-01-15T03:32:05;-2.10;99.90
74822;DHT22;63353;48.702;8.884;2024-01-15T03:34:31;-2.00;99.90
74822;DHT22;63353;48.702;8.884;2024-01-15T03:36:57;-2.00;99.90
74822;DHT22;63353;48.702;8.884;2024-01-15T03:39:24;-2.00;99.90
74822;DHT22;63353;48.702;8.884;2024-01-15T03:41:49;-2.00;99.90
74822;DHT22;63353;48.702;8.884;2024-01-15T03:44:15;-2.00;99.90
74822;DHT22;63353;48.702;8.884;2024-01-15T03:46:41;-2.00;99.90
74822;DHT22;63353;48.702;8.884;2024-01-15T03:49:07;-2.00;99.90
74822;DHT22;63353;48.702;8.884;2024-01-15T03:51:33;-2.00;99.90
74822;DHT22;63353;48.702;8.884;2024-01-15T03:53:58;-2.00;99.90
74822;DHT22;63353;48.702;8.884;2024-01-15T03:56:26;-2.10;99.90
74822;DHT22;63353;48.702;8.884;2024-01-15T03:58:51;-2.10;99.90
74822;DHT22;63353;48.702;8.884;2024-01-15T04:01:17;-2.10;99.90
74822;DHT22;63353;48.702;8.884;2024-01-15T04:03:44;-2.10;99.90
74822;DHT22;63353;48.702;8.884;2024-01-15T04:06:09;-2.10;99.90
74822;DHT22;63353;48.702;8.884;2024-01-15T04:08:35;-2.10;99.90
74822;DHT22;63353;48.702;8.884;2024-01-15T04:11:02;-2.10;99.90
74822;DHT22;63353;48.702;8.884;2024-01-15T04:13:28;-2.10;99.90
74822;DHT22;63353;48.702;8.884;2024-01-15T04:15:53;-2.10;99.90
74822;DHT22;63353;48.702;8.884;2024-01-15T04:18:19;-2.00;99.90
74822;DHT22;63353;48.702;8.884;2024-01-15T04:20:44;-2.10;99.90
74822;DHT22;63353;48.702;8.884;2024-01-15T04:23:10;-2.10;99.90
74822;DHT22;63353;48.702;8.884;2024-01-15T04:25:37;-2.00;99.90
74822;DHT22;63353;48.702;8.884;2024-01-15T04:28:04;-2.00;99.90
74822;DHT22;63353;48.702;8.884;2024-01-15T04:30:30;-2.00;99.90
74822;DHT22;63353;48.702;8.884;2024-01-15T04:32:55;-2.10;99.90
74822;DHT22;63353;48.702;8.884;2024-01-15T04:35:21;-2.00;99.90
74822;DHT22;63353;48.702;8.884;2024-01-15T04:37:46;-2.10;99.90
74822;DHT22;63353;48.702;8.884;2024-01-15T04:40:12;-2.00;99.90
74822;DHT22;63353;48.702;8.884;2024-01-15T04:42:38;-2.10;99.90
74822;DHT22;63353;48.702;8.884;2024-01-15T04:45:04;-2.00;99.90
74822;DHT22;63353;48.702;8.884;2024-01-15T04:47:30;-2.00;99.90
74822;DHT22;63353;48.702;8.884;2024-01-15T04:49:55;-2.00;99.90
74822;DHT22;63353;48.702;8.884;2024-01-15T04:52:21;-2.00;99.90
74822;DHT22;63353;48.702;8.884;2024-01-15T04:54:46;-2.10;99.90
74822;DHT22;63353;48.702;8.884;2024-01-15T04:57:12;-2.10;99.90
74822;DHT22;63353;48.702;8.884;2024-01-15T04:59:39;-2.00;99.90
74822;DHT22;63353;48.702;8.884;2024-01-15T05:02:05;-2.00;99.90
74822;DHT22;63353;48.702;8.884;2024-01-15T05:04:30;-2.10;99.90
74822;DHT22;63353;48.702;8.884;2024-01-15T05:06:58;-2.00;99.90
74822;DHT22;63353;48.702;8.884;2024-01-15T05:09:24;-2.00;99.90
74822;DHT22;63353;48.702;8.884;2024-01-15T05:11:49;-2.00;99.90
74822;DHT22;63353;48.702;8.884;2024-01-15T05:14:15;-2.10;99.90
74822;DHT22;63353;48.702;8.884;2024-01-15T05:16:47;-2.10;99.90
74822;DHT22;63353;48.702;8.884;2024-01-15T05:19:13;-2.10;99.90
74822;DHT22;63353;48.702;8.884;2024-01-15T05:21:40;-2.00;99.90
74822;DHT22;63353;48.702;8.884;2024-01-15T05:24:06;-2.10;99.90
74822;DHT22;63353;48.702;8.884;2024-01-15T05:26:33;-2.10;99.90
74822;DHT22;63353;48.702;8.884;2024-01-15T05:28:59;-2.00;99.90
74822;DHT22;63353;48.702;8.884;2024-01-15T05:31:25;-2.10;99.90
74822;DHT22;63353;48.702;8.884;2024-01-15T05:33:50;-2.10;99.90
74822;DHT22;63353;48.702;8.884;2024-01-15T05:36:16;-2.10;99.90
74822;DHT22;63353;48.702;8.884;2024-01-15T05:38:41;-2.10;99.90
74822;DHT22;63353;48.702;8.884;2024-01-15T05:41:07;-2.10;99.90
74822;DHT22;63353;48.702;8.884;2024-01-15T05:43:34;-2.10;99.90
74822;DHT22;63353;48.702;8.884;2024-01-15T05:46:00;-2.20;99.90
74822;DHT22;63353;48.702;8.884;2024-01-15T05:48:25;-2.20;99.90
74822;DHT22;63353;48.702;8.884;2024-01-15T05:50:51;-2.20;99.90
74822;DHT22;63353;48.702;8.884;2024-01-15T05:53:16;-2.20;99.90
74822;DHT22;63353;48.702;8.884;2024-01-15T05:55:42;-2.20;99.90
74822;DHT22;63353;48.702;8.884;2024-01-15T05:58:08;-2.20;99.90
74822;DHT22;63353;48.702;8.884;2024-01-15T06:00:33;-2.20;99.90
74822;DHT22;63353;48.702;8.884;2024-01-15T06:03:02;-2.20;99.90
74822;DHT22;63353;48.702;8.884;2024-01-15T06:05:27;-2.20;99.90
74822;DHT22;63353;48.702;8.884;2024-01-15T06:07:53;-2.20;99.90
74822;DHT22;63353;48.702;8.884;2024-01-15T06:10:18;-2.20;99.90
74822;DHT22;63353;48.702;8.884;2024-01-15T06:12:44;-2.20;99.90
74822;DHT22;63353;48.702;8.884;2024-01-15T06:15:10;-2.20;99.90
74822;DHT22;63353;48.702;8.884;2024-01-15T06:17:36;-2.20;99.90
74822;DHT22;63353;48.702;8.884;2024-01-15T06:20:03;-2.10;99.90
74822;DHT22;63353;48.702;8.884;2024-01-15T06:22:28;-2.10;99.90
74822;DHT22;63353;48.702;8.884;2024-01-15T06:24:54;-2.10;99.90
74822;DHT22;63353;48.702;8.884;2024-01-15T06:27:21;-2.10;99.90
74822;DHT22;63353;48.702;8.884;2024-01-15T06:29:47;-2.00;99.90
74822;DHT22;63353;48.702;8.884;2024-01-15T06:32:13;-2.00;99.90
74822;DHT22;63353;48.702;8.884;2024-01-15T06:34:38;-2.00;99.90
74822;DHT22;63353;48.702;8.884;2024-01-15T06:37:04;-2.00;99.90
74822;DHT22;63353;48.702;8.884;2024-01-15T06:39:30;-2.00;99.90
74822;DHT22;63353;48.702;8.884;2024-01-15T06:41:56;-2.00;99.90
74822;DHT22;63353;48.702;8.884;2024-01-15T06:44:21;-2.10;99.90
74822;DHT22;63353;48.702;8.884;2024-01-15T06:46:47;-2.00;99.90
74822;DHT22;63353;48.702;8.884;2024-01-15T06:49:13;-2.10;99.90
74822;DHT22;63353;48.702;8.884;2024-01-15T06:51:39;-2.10;99.90
74822;DHT22;63353;48.702;8.884;2024-01-15T06:54:06;-2.00;99.90
74822;DHT22;63353;48.702;8.884;2024-01-15T06:56:32;-2.00;99.90
74822;DHT22;63353;48.702;8.884;2024-01-15T06:58:58;-2.10;99.90
74822;DHT22;63353;48.702;8.884;2024-01-15T07:01:23;-2.10;99.90
74822;DHT22;63353;48.702;8.884;2024-01-15T07:03:49;-2.00;99.90
74822;DHT22;63353;48.702;8.884;2024-01-15T07:06:15;-2.00;99.90
74822;DHT22;63353;48.702;8.884;2024-01-15T07:08:42;-2.00;99.90
74822;DHT22;63353;48.702;8.884;2024-01-15T07:11:08;-2.00;99.90
74822;DHT22;63353;48.702;8.884;2024-01-15T07:13:34;-2.00;99.90
74822;DHT22;63353;48.702;8.884;2024-01-15T07:16:00;-2.00;99.90
74822;DHT22;63353;48.702;8.884;2024-01-15T07:18:26;-1.90;99.90
74822;DHT22;63353;48.702;8.884;2024-01-15T07:20:52;-1.90;99.90
74822;DHT22;63353;48.702;8.884;2024-01-15T07:23:17;-1.90;99.90
74822;DHT22;63353;48.702;8.884;2024-01-15T07:25:44;-1.90;99.90
74822;DHT22;63353;48.702;8.884;2024-01-15T07:28:10;-1.80;99.90
74822;DHT22;63353;48.702;8.884;2024-01-15T07:30:35;-1.90;99.90
74822;DHT22;63353;48.702;8.884;2024-01-15T07:33:04;-1.80;99.90
74822;DHT22;63353;48.702;8.884;2024-01-15T07:35:30;-1.90;99.90
74822;DHT22;63353;48.702;8.884;2024-01-15T07:37:56;-1.90;99.90
74822;DHT22;63353;48.702;8.884;2024-01-15T07:40:22;-1.80;99.90
74822;DHT22;63353;48.702;8.884;2024-01-15T07:42:49;-1.80;99.90
74822;DHT22;63353;48.702;8.884;2024-01-15T07:45:14;-1.80;99.90
74822;DHT22;63353;48.702;8.884;2024-01-15T07:47:41;-1.80;99.90
74822;DHT22;63353;48.702;8.884;2024-01-15T07:50:07;-1.70;99.90
74822;DHT22;63353;48.702;8.884;2024-01-15T07:52:33;-1.80;99.90
74822;DHT22;63353;48.702;8.884;2024-01-15T07:54:58;-1.80;99.90
74822;DHT22;63353;48.702;8.884;2024-01-15T07:57:25;-1.80;99.90
74822;DHT22;63353;48.702;8.884;2024-01-15T07:59:51;-1.80;99.90
74822;DHT22;63353;48.702;8.884;2024-01-15T08:02:17;-1.70;99.90
74822;DHT22;63353;48.702;8.884;2024-01-15T08:04:43;-1.70;99.90
74822;DHT22;63353;48.702;8.884;2024-01-15T08:07:10;-1.70;99.90
74822;DHT22;63353;48.702;8.884;2024-01-15T08:09:36;-1.70;99.90
74822;DHT22;63353;48.702;8.884;2024-01-15T08:12:02;-1.60;99.90
74822;DHT22;63353;48.702;8.884;2024-01-15T08:14:29;-1.60;99.90
74822;DHT22;63353;48.702;8.884;2024-01-15T08:16:55;-1.60;99.90
74822;DHT22;63353;48.702;8.884;2024-01-15T08:19:20;-1.50;99.90
74822;DHT22;63353;48.702;8.884;2024-01-15T08:21:47;-1.60;99.90
74822;DHT22;63353;48.702;8.884;2024-01-15T08:24:14;-1.50;99.90
74822;DHT22;63353;48.702;8.884;2024-01-15T08:26:41;-1.50;99.90
74822;DHT22;63353;48.702;8.884;2024-01-15T08:29:07;-1.50;99.90
74822;DHT22;63353;48.702;8.884;2024-01-15T08:31:34;-1.40;99.90
74822;DHT22;63353;48.702;8.884;2024-01-15T08:34:01;-1.40;99.90
74822;DHT22;63353;48.702;8.884;2024-01-15T08:36:27;-1.40;99.90
74822;DHT22;63353;48.702;8.884;2024-01-15T08:38:55;-1.30;99.90
74822;DHT22;63353;48.702;8.884;2024-01-15T08:41:22;-1.30;99.90
74822;DHT22;63353;48.702;8.884;2024-01-15T08:43:49;-1.30;99.90
74822;DHT22;63353;48.702;8.884;2024-01-15T08:46:15;-1.30;99.90
74822;DHT22;63353;48.702;8.884;2024-01-15T08:48:40;-1.30;99.90
74822;DHT22;63353;48.702;8.884;2024-01-15T08:51:06;-1.20;99.90
74822;DHT22;63353;48.702;8.884;2024-01-15T08:53:33;-1.30;99.90
74822;DHT22;63353;48.702;8.884;2024-01-15T08:55:59;-1.30;99.90
74822;DHT22;63353;48.702;8.884;2024-01-15T08:58:24;-1.30;99.90
74822;DHT22;63353;48.702;8.884;2024-01-15T09:00:51;-1.20;99.90
74822;DHT22;63353;48.702;8.884;2024-01-15T09:03:17;-1.20;99.90
74822;DHT22;63353;48.702;8.884;2024-01-15T09:05:42;-1.20;99.90
74822;DHT22;63353;48.702;8.884;2024-01-15T09:08:08;-1.20;99.90
74822;DHT22;63353;48.702;8.884;2024-01-15T09:10:34;-1.10;99.90
74822;DHT22;63353;48.702;8.884;2024-01-15T09:13:02;-1.10;99.90
74822;DHT22;63353;48.702;8.884;2024-01-15T09:15:30;-1.10;99.90
74822;DHT22;63353;48.702;8.884;2024-01-15T09:17:55;-1.10;99.90
74822;DHT22;63353;48.702;8.884;2024-01-15T09:20:22;-1.00;99.90
74822;DHT22;63353;48.702;8.884;2024-01-15T09:22:48;-1.00;99.90
74822;DHT22;63353;48.702;8.884;2024-01-15T09:25:14;-1.00;99.90
74822;DHT22;63353;48.702;8.884;2024-01-15T09:27:39;-1.00;99.90
74822;DHT22;63353;48.702;8.884;2024-01-15T09:30:06;-1.00;99.90
74822;DHT22;63353;48.702;8.884;2024-01-15T09:32:33;-1.00;99.90
74822;DHT22;63353;48.702;8.884;2024-01-15T09:34:58;-0.90;99.90
74822;DHT22;63353;48.702;8.884;2024-01-15T09:37:24;-0.80;99.90
74822;DHT22;63353;48.702;8.884;2024-01-15T09:39:50;-0.80;99.90
74822;DHT22;63353;48.702;8.884;2024-01-15T09:42:16;-0.80;99.90
74822;DHT22;63353;48.702;8.884;2024-01-15T09:44:42;-0.80;99.90
74822;DHT22;63353;48.702;8.884;2024-01-15T09:47:08;-0.70;99.90
74822;DHT22;63353;48.702;8.884;2024-01-15T09:49:34;-0.60;99.90
74822;DHT22;63353;48.702;8.884;2024-01-15T09:52:01;-0.70;99.90
74822;DHT22;63353;48.702;8.884;2024-01-15T09:54:28;-0.60;99.90
74822;DHT22;63353;48.702;8.884;2024-01-15T09:56:55;-0.60;99.90
74822;DHT22;63353;48.702;8.884;2024-01-15T09:59:22;-0.60;99.90
74822;DHT22;63353;48.702;8.884;2024-01-15T10:01:50;-0.60;99.90
74822;DHT22;63353;48.702;8.884;2024-01-15T10:04:16;-0.70;99.90
74822;DHT22;63353;48.702;8.884;2024-01-15T10:06:44;-0.70;99.90
74822;DHT22;63353;48.702;8.884;2024-01-15T10:09:13;-0.70;99.90
74822;DHT22;63353;48.702;8.884;2024-01-15T10:11:42;-0.70;99.90
74822;DHT22;63353;48.702;8.884;2024-01-15T10:14:11;-0.60;99.90
74822;DHT22;63353;48.702;8.884;2024-01-15T10:16:38;-0.60;99.90
74822;DHT22;63353;48.702;8.884;2024-01-15T10:19:04;-0.60;99.90
74822;DHT22;63353;48.702;8.884;2024-01-15T10:21:32;-0.50;99.90
74822;DHT22;63353;48.702;8.884;2024-01-15T10:24:00;-0.60;99.90
74822;DHT22;63353;48.702;8.884;2024-01-15T10:26:26;-0.50;99.90
74822;DHT22;63353;48.702;8.884;2024-01-15T10:28:52;-0.50;99.90
74822;DHT22;63353;48.702;8.884;2024-01-15T10:31:18;-0.50;99.90
74822;DHT22;63353;48.702;8.884;2024-01-15T10:33:44;-0.50;99.90
74822;DHT22;63353;48.702;8.884;2024-01-15T10:36:10;-0.50;99.90
74822;DHT22;63353;48.702;8.884;2024-01-15T10:38:39;-0.50;99.90
74822;DHT22;63353;48.702;8.884;2024-01-15T10:41:04;-0.40;99.90
74822;DHT22;63353;48.702;8.884;2024-01-15T10:43:31;-0.40;99.90
74822;DHT22;63353;48.702;8.884;2024-01-15T10:45:57;-0.40;99.90
74822;DHT22;63353;48.702;8.884;2024-01-15T10:48:22;-0.40;99.90
74822;DHT22;63353;48.702;8.884;2024-01-15T10:50:49;-0.40;99.90
74822;DHT22;63353;48.702;8.884;2024-01-15T10:53:16;-0.40;99.90
74822;DHT22;63353;48.702;8.884;2024-01-15T10:55:43;-0.30;99.90
74822;DHT22;63353;48.702;8.884;2024-01-15T10:58:09;-0.20;99.90
74822;DHT22;63353;48.702;8.884;2024-01-15T11:00:35;-0.30;99.90
74822;DHT22;63353;48.702;8.884;2024-01-15T11:03:03;-0.30;99.90
74822;DHT22;63353;48.702;8.884;2024-01-15T11:05:43;-0.30;99.90
74822;DHT22;63353;48.702;8.884;2024-01-15T11:08:10;-0.30;99.90
74822;DHT22;63353;48.702;8.884;2024-01-15T11:10:41;-0.30;99.90
74822;DHT22;63353;48.702;8.884;2024-01-15T11:16:09;-0.30;99.90
74822;DHT22;63353;48.702;8.884;2024-01-15T11:18:37;-0.30;99.90
74822;DHT22;63353;48.702;8.884;2024-01-15T11:23:44;-0.40;99.90
74822;DHT22;63353;48.702;8.884;2024-01-15T11:29:01;-0.50;99.90
74822;DHT22;63353;48.702;8.884;2024-01-15T11:34:10;-0.60;99.90
74822;DHT22;63353;48.702;8.884;2024-01-15T11:42:00;-0.60;99.90
74822;DHT22;63353;48.702;8.884;2024-01-15T11:44:27;-0.50;99.90
74822;DHT22;63353;48.702;8.884;2024-01-15T11:47:14;-0.60;99.90
74822;DHT22;63353;48.702;8.884;2024-01-15T11:49:59;-0.60;99.90
74822;DHT22;63353;48.702;8.884;2024-01-15T11:52:37;-0.60;99.90
74822;DHT22;63353;48.702;8.884;2024-01-15T11:55:11;-0.70;99.90
74822;DHT22;63353;48.702;8.884;2024-01-15T11:57:40;-0.80;99.90
74822;DHT22;63353;48.702;8.884;2024-01-15T12:00:09;-0.70;99.90
74822;DHT22;63353;48.702;8.884;2024-01-15T12:02:36;-0.80;99.90
74822;DHT22;63353;48.702;8.884;2024-01-15T12:05:02;-0.80;99.90
74822;DHT22;63353;48.702;8.884;2024-01-15T12:07:28;-0.80;99.90
74822;DHT22;63353;48.702;8.884;2024-01-15T12:09:54;-0.80;99.90
74822;DHT22;63353;48.702;8.884;2024-01-15T12:12:27;-0.90;99.90
74822;DHT22;63353;48.702;8.884;2024-01-15T12:14:54;-0.90;99.90
74822;DHT22;63353;48.702;8.884;2024-01-15T12:17:19;-1.00;99.90
74822;DHT22;63353;48.702;8.884;2024-01-15T12:19:45;-0.90;99.90
74822;DHT22;63353;48.702;8.884;2024-01-15T12:22:12;-0.80;99.90
74822;DHT22;63353;48.702;8.884;2024-01-15T12:24:38;-1.00;99.90
74822;DHT22;63353;48.702;8.884;2024-01-15T12:27:04;-0.90;99.90
74822;DHT22;63353;48.702;8.884;2024-01-15T12:29:31;-1.00;99.90
74822;DHT22;63353;48.702;8.884;2024-01-15T12:31:57;-0.90;99.90
74822;DHT22;63353;48.702;8.884;2024-01-15T12:34:22;-0.90;99.90
74822;DHT22;63353;48.702;8.884;2024-01-15T12:36:48;-1.00;99.90
74822;DHT22;63353;48.702;8.884;2024-01-15T12:39:14;-1.00;99.90
74822;DHT22;63353;48.702;8.884;2024-01-15T12:41:41;-1.00;99.90
74822;DHT22;63353;48.702;8.884;2024-01-15T12:44:06;-1.00;99.90
74822;DHT22;63353;48.702;8.884;2024-01-15T12:46:32;-1.00;99.90
74822;DHT22;63353;48.702;8.884;2024-01-15T12:48:59;-0.90;99.90
74822;DHT22;63353;48.702;8.884;2024-01-15T12:51:25;-0.90;99.90
74822;DHT22;63353;48.702;8.884;2024-01-15T12:53:53;-0.80;99.90
74822;DHT22;63353;48.702;8.884;2024-01-15T12:56:20;-0.90;99.90
74822;DHT22;63353;48.702;8.884;2024-01-15T12:58:45;-0.90;99.90
74822;DHT22;63353;48.702;8.884;2024-01-15T13:01:12;-0.90;99.90
74822;DHT22;63353;48.702;8.884;2024-01-15T13:03:38;-0.80;99.90
74822;DHT22;63353;48.702;8.884;2024-01-15T13:06:03;-0.80;99.90
74822;DHT22;63353;48.702;8.884;2024-01-15T13:08:30;-0.80;99.90
74822;DHT22;63353;48.702;8.884;2024-01-15T13:10:56;-0.70;99.90
74822;DHT22;63353;48.702;8.884;2024-01-15T13:13:23;-0.60;99.90
74822;DHT22;63353;48.702;8.884;2024-01-15T13:15:48;-0.70;99.90
74822;DHT22;63353;48.702;8.884;2024-01-15T13:18:14;-0.70;99.90
74822;DHT22;63353;48.702;8.884;2024-01-15T13:20:40;-0.70;99.90
74822;DHT22;63353;48.702;8.884;2024-01-15T13:23:05;-0.60;99.90
74822;DHT22;63353;48.702;8.884;2024-01-15T13:25:31;-0.60;99.90
74822;DHT22;63353;48.702;8.884;2024-01-15T13:27:59;-0.70;99.90
74822;DHT22;63353;48.702;8.884;2024-01-15T13:30:25;-0.50;99.90
74822;DHT22;63353;48.702;8.884;2024-01-15T13:32:51;-0.50;99.90
74822;DHT22;63353;48.702;8.884;2024-01-15T13:35:16;-0.60;99.90
74822;DHT22;63353;48.702;8.884;2024-01-15T13:37:42;-0.60;99.90
74822;DHT22;63353;48.702;8.884;2024-01-15T13:40:08;-0.60;99.90
74822;DHT22;63353;48.702;8.884;2024-01-15T13:42:35;-0.60;99.90
74822;DHT22;63353;48.702;8.884;2024-01-15T13:45:05;-0.60;99.90
74822;DHT22;63353;48.702;8.884;2024-01-15T13:47:31;-0.60;99.90
74822;DHT22;63353;48.702;8.884;2024-01-15T13:49:57;-0.50;99.90
74822;DHT22;63353;48.702;8.884;2024-01-15T13:52:23;-0.50;99.90
74822;DHT22;63353;48.702;8.884;2024-01-15T13:54:50;-0.50;99.90
74822;DHT22;63353;48.702;8.884;2024-01-15T13:57:16;-0.40;99.90
74822;DHT22;63353;48.702;8.884;2024-01-15T13:59:42;-0.50;99.90
74822;DHT22;63353;48.702;8.884;2024-01-15T14:02:08;-0.50;99.90
74822;DHT22;63353;48.702;8.884;2024-01-15T14:04:33;-0.50;99.90
74822;DHT22;63353;48.702;8.884;2024-01-15T14:06:59;-0.60;99.90
74822;DHT22;63353;48.702;8.884;2024-01-15T14:09:24;-0.60;99.90
74822;DHT22;63353;48.702;8.884;2024-01-15T14:11:51;-0.60;99.90
74822;DHT22;63353;48.702;8.884;2024-01-15T14:14:17;-0.70;99.90
74822;DHT22;63353;48.702;8.884;2024-01-15T14:16:42;-0.70;99.90
74822;DHT22;63353;48.702;8.884;2024-01-15T14:19:08;-0.80;99.90
74822;DHT22;63353;48.702;8.884;2024-01-15T14:21:35;-0.70;99.90
74822;DHT22;63353;48.702;8.884;2024-01-15T14:24:01;-0.70;99.90
74822;DHT22;63353;48.702;8.884;2024-01-15T14:26:27;-0.80;99.90
74822;DHT22;63353;48.702;8.884;2024-01-15T14:28:53;-0.80;99.90
74822;DHT22;63353;48.702;8.884;2024-01-15T14:31:20;-0.80;99.90
74822;DHT22;63353;48.702;8.884;2024-01-15T14:33:45;-0.80;99.90
74822;DHT22;63353;48.702;8.884;2024-01-15T14:36:11;-0.90;99.90
74822;DHT22;63353;48.702;8.884;2024-01-15T14:38:37;-0.90;99.90
74822;DHT22;63353;48.702;8.884;2024-01-15T14:41:03;-1.00;99.90
74822;DHT22;63353;48.702;8.884;2024-01-15T14:43:29;-1.00;99.90
74822;DHT22;63353;48.702;8.884;2024-01-15T14:45:58;-1.10;99.90
74822;DHT22;63353;48.702;8.884;2024-01-15T14:48:24;-1.10;99.90
74822;DHT22;63353;48.702;8.884;2024-01-15T14:50:50;-1.10;99.90
74822;DHT22;63353;48.702;8.884;2024-01-15T14:53:16;-1.20;99.90
74822;DHT22;63353;48.702;8.884;2024-01-15T14:55:42;-1.10;99.90
74822;DHT22;63353;48.702;8.884;2024-01-15T14:58:08;-1.20;99.90
74822;DHT22;63353;48.702;8.884;2024-01-15T15:00:35;-1.20;99.90
74822;DHT22;63353;48.702;8.884;2024-01-15T15:03:03;-1.20;99.90
74822;DHT22;63353;48.702;8.884;2024-01-15T15:05:28;-1.30;99.90
74822;DHT22;63353;48.702;8.884;2024-01-15T15:07:54;-1.30;99.90
74822;DHT22;63353;48.702;8.884;2024-01-15T15:10:20;-1.20;99.90
74822;DHT22;63353;48.702;8.884;2024-01-15T15:12:45;-1.30;99.90
74822;DHT22;63353;48.702;8.884;2024-01-15T15:15:14;-1.30;99.90
74822;DHT22;63353;48.702;8.884;2024-01-15T15:17:42;-1.30;99.90
74822;DHT22;63353;48.702;8.884;2024-01-15T15:20:07;-1.30;99.90
74822;DHT22;63353;48.702;8.884;2024-01-15T15:22:34;-1.40;99.90
74822;DHT22;63353;48.702;8.884;2024-01-15T15:25:00;-1.40;99.90
74822;DHT22;63353;48.702;8.884;2024-01-15T15:27:26;-1.40;99.90
74822;DHT22;63353;48.702;8.884;2024-01-15T15:29:53;-1.40;99.90
74822;DHT22;63353;48.702;8.884;2024-01-15T15:32:19;-1.50;99.90
74822;DHT22;63353;48.702;8.884;2024-01-15T15:34:45;-1.50;99.90
74822;DHT22;63353;48.702;8.884;2024-01-15T15:37:11;-1.50;99.90
74822;DHT22;63353;48.702;8.884;2024-01-15T15:39:37;-1.50;99.90
74822;DHT22;63353;48.702;8.884;2024-01-15T15:42:03;-1.60;99.90